Time;durP1;ratioP1;P1;durP2;ratioP2;P2;SDS_P1;SDS_P2;PMS_P1;PMS_P2;Temp;Humidity;BMP_temperature;BMP_pressure;BME280_temperature;BME280_humidity;BME280_pressure;Samples;Min_cycle;Max_cycle;Signal;HPM_P1;HPM_P2
2021/10/02 00:01:27;;;;;;;3.08;1.80;;;;;;;;;;5028567;28;20220;-76
2021/10/02 00:35:05;;;;;;;2.00;1.40;;;;;;;;;;5025899;28;20764;-77
2021/10/02 00:37:43;;;;;;;4.20;1.10;;;;;;;;;;5029971;28;20194;-76
2021/10/02 00:45:51;;;;;;;2.05;1.30;;;;;;;;;;5023443;28;20203;-76
2021/10/02 00:48:18;;;;;;;3.25;1.60;;;;;;;;;;5019159;28;20598;-77
2021/10/02 00:50:46;;;;;;;3.83;1.45;;;;;;;;;;5029621;28;20197;-77
2021/10/02 00:53:14;;;;;;;2.42;1.60;;;;;;;;;;5032167;28;20196;-77
2021/10/02 00:55:41;;;;;;;2.22;1.40;;;;;;;;;;5031344;28;20262;-77
2021/10/02 00:58:08;;;;;;;2.00;1.35;;;;;;;;;;5021312;28;20193;-77
2021/10/02 01:00:35;;;;;;;2.13;1.30;;;;;;;;;;5030874;28;20196;-76
2021/10/02 01:03:06;;;;;;;2.50;1.42;;;;;;;;;;5030815;28;20200;-76
2021/10/02 01:05:46;;;;;;;3.47;1.77;;;;;;;;;;5024673;28;20565;-76
2021/10/02 01:08:18;;;;;;;2.13;1.35;;;;;;;;;;5032049;28;20196;-76
2021/10/02 01:10:48;;;;;;;4.85;1.63;;;;;;;;;;5032464;28;20331;-78
2021/10/02 01:13:17;;;;;;;1.80;1.35;;;;;;;;;;5030354;28;20635;-78
2021/10/02 01:15:48;;;;;;;2.78;1.70;;;;;;;;;;5031304;28;20211;-78
2021/10/02 01:18:17;;;;;;;1.60;1.45;;;;;;;;;;5031897;28;20665;-78
2021/10/02 01:20:56;;;;;;;2.70;1.30;;;;;;;;;;5031617;28;20200;-78
2021/10/02 01:23:42;;;;;;;2.58;1.55;;;;;;;;;;5028109;28;20278;-78
2021/10/02 01:26:24;;;;;;;3.78;2.13;;;;;;;;;;5016162;28;20196;-78
2021/10/02 01:28:55;;;;;;;1.80;1.38;;;;;;;;;;5005041;28;20593;-78
2021/10/02 01:31:26;;;;;;;4.78;1.23;;;;;;;;;;5031292;28;20730;-79
2021/10/02 01:33:58;;;;;;;1.70;1.45;;;;;;;;;;5031014;28;20242;-79
2021/10/02 01:36:36;;;;;;;1.80;1.23;;;;;;;;;;5027855;28;20633;-75
2021/10/02 01:47:23;;;;;;;1.77;1.27;;;;;;;;;;5013288;28;20231;-77
2021/10/02 01:49:52;;;;;;;3.30;1.10;;;;;;;;;;5016648;28;20223;-76
2021/10/02 01:52:22;;;;;;;1.63;1.30;;;;;;;;;;5015749;28;20537;-77
2021/10/02 01:54:50;;;;;;;1.75;1.20;;;;;;;;;;5022130;28;20246;-77
2021/10/02 01:57:17;;;;;;;2.50;1.40;;;;;;;;;;5020539;28;20247;-77
2021/10/02 01:59:46;;;;;;;1.58;1.20;;;;;;;;;;5029057;28;20192;-75
2021/10/02 02:02:14;;;;;;;2.58;1.52;;;;;;;;;;5027604;28;20208;-76
2021/10/02 02:04:42;;;;;;;1.50;1.23;;;;;;;;;;5024895;28;20258;-76
2021/10/02 02:07:09;;;;;;;1.80;1.65;;;;;;;;;;5020182;28;20652;-75
2021/10/02 02:09:38;;;;;;;2.88;1.58;;;;;;;;;;5017136;28;20196;-75
2021/10/02 02:12:09;;;;;;;1.20;1.10;;;;;;;;;;5023417;28;20200;-75
2021/10/02 02:14:37;;;;;;;1.65;1.40;;;;;;;;;;5025687;28;20294;-76
2021/10/02 02:17:07;;;;;;;1.30;1.20;;;;;;;;;;5028267;28;20192;-75
2021/10/02 02:19:34;;;;;;;1.45;1.25;;;;;;;;;;5026652;28;20200;-76
2021/10/02 02:22:02;;;;;;;1.40;1.00;;;;;;;;;;5021818;28;20203;-76
2021/10/02 02:24:29;;;;;;;2.25;1.70;;;;;;;;;;5030510;28;20249;-75
2021/10/02 02:26:56;;;;;;;1.50;1.00;;;;;;;;;;5024033;28;20197;-76
2021/10/02 02:29:23;;;;;;;1.80;1.10;;;;;;;;;;5029059;28;20610;-75
2021/10/02 02:31:50;;;;;;;1.42;1.10;;;;;;;;;;5030808;28;20246;-76
2021/10/02 02:34:19;;;;;;;1.48;1.15;;;;;;;;;;5031524;28;20247;-75
2021/10/02 02:36:46;;;;;;;1.50;1.10;;;;;;;;;;5030224;28;20642;-75
2021/10/02 02:39:13;;;;;;;1.40;1.10;;;;;;;;;;5034676;28;20196;-75
2021/10/02 02:41:40;;;;;;;2.03;1.05;;;;;;;;;;5029057;28;20644;-75
2021/10/02 02:44:07;;;;;;;1.75;1.20;;;;;;;;;;5030512;28;20196;-75
2021/10/02 02:46:34;;;;;;;1.20;1.00;;;;;;;;;;5035050;28;20204;-75
2021/10/02 02:49:05;;;;;;;2.30;1.10;;;;;;;;;;5033134;28;20679;-75
2021/10/02 02:51:39;;;;;;;1.20;1.10;;;;;;;;;;5033319;28;20659;-74
2021/10/02 02:54:11;;;;;;;1.40;1.00;;;;;;;;;;5034535;28;20200;-73
2021/10/02 02:56:40;;;;;;;1.30;1.02;;;;;;;;;;5020036;28;20228;-77
2021/10/02 02:59:10;;;;;;;1.63;1.20;;;;;;;;;;5032947;28;20191;-74
2021/10/02 03:01:37;;;;;;;1.65;1.20;;;;;;;;;;5024840;28;20606;-75
2021/10/02 03:04:05;;;;;;;1.20;1.10;;;;;;;;;;5033801;28;20196;-78
2021/10/02 03:06:34;;;;;;;1.65;0.90;;;;;;;;;;5022772;28;20201;-77
2021/10/02 03:09:03;;;;;;;1.23;1.05;;;;;;;;;;5017155;28;20501;-75
2021/10/02 03:11:31;;;;;;;1.25;0.98;;;;;;;;;;5029995;28;20200;-78
2021/10/02 03:13:59;;;;;;;1.25;0.95;;;;;;;;;;5029764;28;20294;-78
2021/10/02 03:16:27;;;;;;;1.30;1.00;;;;;;;;;;5033276;28;20421;-78
2021/10/02 03:18:55;;;;;;;1.17;0.98;;;;;;;;;;5034498;28;20682;-78
2021/10/02 03:21:24;;;;;;;1.73;1.38;;;;;;;;;;5030983;28;20652;-76
2021/10/02 03:23:51;;;;;;;1.10;0.93;;;;;;;;;;5033623;28;20193;-76
2021/10/02 03:26:20;;;;;;;1.70;1.30;;;;;;;;;;5032434;28;20192;-77
2021/10/02 03:28:49;;;;;;;2.00;1.20;;;;;;;;;;5032526;28;20201;-76
2021/10/02 03:31:17;;;;;;;1.70;1.08;;;;;;;;;;5033058;28;20216;-76
2021/10/02 03:33:44;;;;;;;1.30;1.15;;;;;;;;;;5033676;28;20192;-77
2021/10/02 03:36:11;;;;;;;1.60;1.48;;;;;;;;;;5025714;28;20216;-76
2021/10/02 03:38:38;;;;;;;1.10;0.95;;;;;;;;;;5023866;28;20586;-77
2021/10/02 03:41:06;;;;;;;1.55;1.45;;;;;;;;;;5028550;28;20193;-77
2021/10/02 03:43:35;;;;;;;2.05;1.25;;;;;;;;;;5032548;28;20609;-77
2021/10/02 03:46:03;;;;;;;1.45;1.15;;;;;;;;;;5033719;28;20204;-76
2021/10/02 03:48:30;;;;;;;1.50;1.30;;;;;;;;;;5015863;28;20656;-77
2021/10/02 03:50:57;;;;;;;1.17;1.08;;;;;;;;;;5024377;28;20250;-78
2021/10/02 03:53:25;;;;;;;1.25;1.13;;;;;;;;;;5032116;28;20302;-78
2021/10/02 03:55:52;;;;;;;1.20;1.10;;;;;;;;;;5033733;28;20212;-76
2021/10/02 03:58:19;;;;;;;2.13;1.60;;;;;;;;;;5029747;28;20200;-77
2021/10/02 04:00:47;;;;;;;4.90;1.95;;;;;;;;;;5032354;28;20192;-78
2021/10/02 04:03:14;;;;;;;1.20;0.90;;;;;;;;;;5032773;28;20192;-78
2021/10/02 04:05:41;;;;;;;1.30;1.10;;;;;;;;;;5026278;28;20197;-77
2021/10/02 04:08:08;;;;;;;1.33;0.90;;;;;;;;;;5028197;28;20235;-78
2021/10/02 04:10:35;;;;;;;1.17;1.05;;;;;;;;;;5033284;28;20200;-77
2021/10/02 04:13:02;;;;;;;1.08;0.93;;;;;;;;;;5016436;28;20268;-78
2021/10/02 04:15:30;;;;;;;9.77;2.47;;;;;;;;;;5032427;28;20196;-79
2021/10/02 04:17:59;;;;;;;1.73;1.10;;;;;;;;;;5031523;28;20207;-79
2021/10/02 04:20:26;;;;;;;1.20;0.98;;;;;;;;;;5029590;28;20546;-79
2021/10/02 04:22:53;;;;;;;2.05;1.25;;;;;;;;;;5028025;28;20196;-79
2021/10/02 04:25:20;;;;;;;3.88;1.42;;;;;;;;;;5019649;28;20267;-79
2021/10/02 04:27:47;;;;;;;1.50;1.40;;;;;;;;;;5030101;28;20204;-78
2021/10/02 04:30:14;;;;;;;1.23;1.00;;;;;;;;;;5032671;28;20216;-79
2021/10/02 04:32:41;;;;;;;2.10;1.27;;;;;;;;;;5025101;28;20250;-77
2021/10/02 04:35:10;;;;;;;1.38;1.05;;;;;;;;;;5029394;28;20200;-75
2021/10/02 04:37:37;;;;;;;1.20;1.00;;;;;;;;;;5032862;28;20239;-77
2021/10/02 04:40:04;;;;;;;1.35;1.10;;;;;;;;;;5032465;28;20192;-74
2021/10/02 04:42:31;;;;;;;1.42;1.05;;;;;;;;;;5025758;28;20250;-77
2021/10/02 04:44:58;;;;;;;2.13;1.50;;;;;;;;;;5029468;28;20192;-77
2021/10/02 04:47:26;;;;;;;1.10;0.90;;;;;;;;;;5020549;28;20250;-77
2021/10/02 04:49:53;;;;;;;2.17;1.45;;;;;;;;;;5031000;28;20559;-76
2021/10/02 04:52:21;;;;;;;1.30;1.00;;;;;;;;;;5032476;28;20196;-77
2021/10/02 04:54:48;;;;;;;1.92;1.23;;;;;;;;;;5031293;28;20200;-76
2021/10/02 04:57:15;;;;;;;2.03;1.05;;;;;;;;;;5021093;28;20287;-76
2021/10/02 04:59:42;;;;;;;1.27;1.10;;;;;;;;;;5030255;28;20727;-76
2021/10/02 05:02:09;;;;;;;1.50;1.30;;;;;;;;;;5031773;28;20200;-77
2021/10/02 05:04:36;;;;;;;1.30;1.10;;;;;;;;;;5029955;28;20583;-77
2021/10/02 05:07:04;;;;;;;1.42;1.10;;;;;;;;;;5032293;28;20196;-77
2021/10/02 05:09:32;;;;;;;1.80;1.33;;;;;;;;;;5030095;28;20656;-77
2021/10/02 05:11:59;;;;;;;3.05;1.10;;;;;;;;;;5023200;28;20197;-77
2021/10/02 05:14:26;;;;;;;1.30;1.00;;;;;;;;;;5032206;28;20744;-76
2021/10/02 05:16:53;;;;;;;1.50;1.30;;;;;;;;;;5030225;28;20211;-76
2021/10/02 05:19:20;;;;;;;1.23;1.10;;;;;;;;;;5031924;28;20740;-77
2021/10/02 05:21:47;;;;;;;1.10;0.98;;;;;;;;;;5021074;28;20199;-77
2021/10/02 05:24:14;;;;;;;1.30;1.10;;;;;;;;;;5031112;28;20638;-76
2021/10/02 05:26:43;;;;;;;1.10;1.00;;;;;;;;;;5024453;28;20660;-75
2021/10/02 05:29:10;;;;;;;1.88;1.23;;;;;;;;;;5016144;28;20254;-76
2021/10/02 05:31:37;;;;;;;1.73;1.45;;;;;;;;;;5031599;28;20635;-74
2021/10/02 05:34:04;;;;;;;1.55;1.30;;;;;;;;;;5031462;28;20192;-76
2021/10/02 05:36:31;;;;;;;1.45;1.33;;;;;;;;;;5028253;28;20215;-74
2021/10/02 05:38:58;;;;;;;1.20;1.10;;;;;;;;;;5029110;28;20196;-74
2021/10/02 05:41:25;;;;;;;1.15;1.02;;;;;;;;;;5013336;28;20203;-75
2021/10/02 05:43:53;;;;;;;1.70;1.17;;;;;;;;;;5031032;28;20192;-77
2021/10/02 05:46:20;;;;;;;1.40;1.30;;;;;;;;;;5023413;28;20239;-76
2021/10/02 05:48:47;;;;;;;1.52;1.38;;;;;;;;;;5024834;28;20239;-76
2021/10/02 05:51:14;;;;;;;1.65;1.20;;;;;;;;;;5023642;28;20204;-76
2021/10/02 05:53:41;;;;;;;1.92;1.40;;;;;;;;;;5018828;28;20221;-76
2021/10/02 05:56:08;;;;;;;1.55;1.45;;;;;;;;;;5029400;28;20219;-79
2021/10/02 05:58:35;;;;;;;1.77;1.38;;;;;;;;;;5017890;28;20663;-75
2021/10/02 06:01:04;;;;;;;1.38;1.27;;;;;;;;;;5027292;28;20250;-74
2021/10/02 06:03:31;;;;;;;2.00;1.10;;;;;;;;;;5030441;28;20203;-77
2021/10/02 06:06:00;;;;;;;1.30;1.10;;;;;;;;;;5025990;28;20208;-73
2021/10/02 06:08:27;;;;;;;1.42;1.20;;;;;;;;;;5027069;28;20216;-73
2021/10/02 06:10:54;;;;;;;1.60;1.40;;;;;;;;;;5030932;28;20275;-73
2021/10/02 06:13:22;;;;;;;2.00;1.25;;;;;;;;;;5015353;28;20204;-73
2021/10/02 06:15:49;;;;;;;1.38;1.27;;;;;;;;;;5031233;28;20242;-74
2021/10/02 06:18:17;;;;;;;1.35;1.20;;;;;;;;;;5030774;28;20219;-80
2021/10/02 06:20:44;;;;;;;2.15;1.70;;;;;;;;;;5020037;28;20264;-72
2021/10/02 06:23:11;;;;;;;1.70;1.60;;;;;;;;;;5033551;23;20240;-85
2021/10/02 06:25:38;;;;;;;3.50;1.20;;;;;;;;;;5032200;28;20196;-86
2021/10/02 06:28:05;;;;;;;1.10;0.93;;;;;;;;;;5033110;28;20196;-86
2021/10/02 06:30:32;;;;;;;1.10;1.00;;;;;;;;;;5030030;28;20219;-86
2021/10/02 06:33:00;;;;;;;1.30;1.20;;;;;;;;;;5032277;28;20250;-87
2021/10/02 06:35:28;;;;;;;1.83;1.35;;;;;;;;;;5032540;28;20590;-87
2021/10/02 06:37:57;;;;;;;1.65;1.40;;;;;;;;;;5031934;28;20220;-87
2021/10/02 06:40:24;;;;;;;1.55;1.45;;;;;;;;;;5029081;28;20261;-86
2021/10/02 06:42:52;;;;;;;1.52;1.15;;;;;;;;;;5033364;28;20196;-87
2021/10/02 06:45:19;;;;;;;1.40;0.82;;;;;;;;;;5030371;28;20219;-87
2021/10/02 06:47:46;;;;;;;1.77;1.67;;;;;;;;;;5033211;28;20193;-87
2021/10/02 06:50:14;;;;;;;1.60;1.50;;;;;;;;;;5032533;28;20195;-87
2021/10/02 06:52:42;;;;;;;1.95;1.50;;;;;;;;;;5028439;28;20204;-89
2021/10/02 06:55:10;;;;;;;1.50;1.20;;;;;;;;;;5033226;28;20575;-88
2021/10/02 06:57:37;;;;;;;1.52;1.17;;;;;;;;;;5033628;28;20215;-87
2021/10/02 07:00:05;;;;;;;1.75;1.35;;;;;;;;;;5024854;28;20205;-88
2021/10/02 07:02:32;;;;;;;2.20;1.10;;;;;;;;;;5027435;28;20670;-88
2021/10/02 07:04:59;;;;;;;1.80;1.30;;;;;;;;;;5028355;28;20192;-86
2021/10/02 07:07:26;;;;;;;1.52;1.27;;;;;;;;;;5032415;28;20204;-88
2021/10/02 07:09:55;;;;;;;1.40;1.30;;;;;;;;;;5033065;28;20196;-87
2021/10/02 07:12:22;;;;;;;2.03;0.90;;;;;;;;;;5022998;28;20223;-88
2021/10/02 07:14:49;;;;;;;1.17;1.08;;;;;;;;;;5028145;28;20683;-86
2021/10/02 07:17:16;;;;;;;1.80;1.40;;;;;;;;;;5023911;28;20221;-83
2021/10/02 07:19:43;;;;;;;2.30;1.40;;;;;;;;;;5023884;28;20211;-84
2021/10/02 07:22:10;;;;;;;1.35;1.20;;;;;;;;;;5031140;28;20634;-84
2021/10/02 07:24:37;;;;;;;2.40;1.20;;;;;;;;;;5033947;28;20208;-85
2021/10/02 07:27:06;;;;;;;1.35;1.25;;;;;;;;;;5034318;28;20196;-84
2021/10/02 07:29:33;;;;;;;1.17;0.98;;;;;;;;;;5035223;28;20554;-89
2021/10/02 07:32:00;;;;;;;1.20;1.10;;;;;;;;;;5029102;28;20265;-84
2021/10/02 07:34:27;;;;;;;1.45;1.13;;;;;;;;;;5031636;28;20199;-81
2021/10/02 07:36:54;;;;;;;2.38;1.00;;;;;;;;;;5029141;28;20219;-82
2021/10/02 07:39:21;;;;;;;2.33;1.30;;;;;;;;;;5031304;28;20204;-84
2021/10/02 07:41:49;;;;;;;1.10;1.00;;;;;;;;;;5019230;28;20615;-87
2021/10/02 07:44:20;;;;;;;1.10;1.00;;;;;;;;;;5024430;28;20325;-85
2021/10/02 07:46:49;;;;;;;1.20;1.00;;;;;;;;;;5031472;28;20192;-88
2021/10/02 07:49:17;;;;;;;1.20;0.90;;;;;;;;;;5035892;28;20196;-87
2021/10/02 07:51:44;;;;;;;1.65;1.02;;;;;;;;;;5032530;28;20197;-86
2021/10/02 07:54:12;;;;;;;2.45;1.27;;;;;;;;;;5029194;28;20208;-86
2021/10/02 07:56:39;;;;;;;1.10;1.00;;;;;;;;;;5020729;28;20200;-86
2021/10/02 07:59:07;;;;;;;3.08;2.38;;;;;;;;;;5031344;28;20254;-86
2021/10/02 08:01:36;;;;;;;1.83;1.05;;;;;;;;;;5027545;28;20654;-85
2021/10/02 08:04:03;;;;;;;1.30;1.15;;;;;;;;;;5032605;28;20215;-86
2021/10/02 08:06:31;;;;;;;1.20;1.10;;;;;;;;;;5032750;28;20200;-86
2021/10/02 08:08:58;;;;;;;1.48;1.38;;;;;;;;;;5033612;28;20697;-86
2021/10/02 08:11:25;;;;;;;1.30;0.98;;;;;;;;;;5031704;28;20373;-87
2021/10/02 08:13:53;;;;;;;1.40;1.02;;;;;;;;;;5026386;28;20664;-86
2021/10/02 08:16:20;;;;;;;1.73;1.10;;;;;;;;;;5028571;28;20643;-85
2021/10/02 08:18:49;;;;;;;1.30;1.00;;;;;;;;;;5023401;28;20216;-85
2021/10/02 08:21:17;;;;;;;1.30;1.00;;;;;;;;;;5025025;28;20193;-86
2021/10/02 08:23:45;;;;;;;1.42;1.25;;;;;;;;;;5029833;28;20204;-85
2021/10/02 08:26:14;;;;;;;1.20;0.90;;;;;;;;;;5031588;28;20729;-85
2021/10/02 08:28:45;;;;;;;1.60;1.00;;;;;;;;;;5033676;28;20239;-86
2021/10/02 08:31:12;;;;;;;1.38;1.27;;;;;;;;;;5023868;28;20445;-86
2021/10/02 08:33:39;;;;;;;1.20;1.10;;;;;;;;;;5023103;28;20200;-86
2021/10/02 08:36:07;;;;;;;1.05;0.90;;;;;;;;;;5023486;28;20207;-85
2021/10/02 08:38:34;;;;;;;1.30;0.80;;;;;;;;;;5022374;28;20220;-85
2021/10/02 08:41:03;;;;;;;1.35;1.17;;;;;;;;;;5026148;28;20270;-86
2021/10/02 08:43:30;;;;;;;0.98;0.85;;;;;;;;;;5028281;28;20220;-86
2021/10/02 08:45:58;;;;;;;1.10;1.00;;;;;;;;;;5030601;28;20197;-86
2021/10/02 08:48:25;;;;;;;1.45;1.23;;;;;;;;;;5030808;28;20685;-85
2021/10/02 08:50:52;;;;;;;0.98;0.85;;;;;;;;;;5025556;28;20262;-86
2021/10/02 08:53:21;;;;;;;1.70;1.20;;;;;;;;;;5031408;28;20674;-84
2021/10/02 08:55:48;;;;;;;1.90;1.10;;;;;;;;;;5030868;28;20227;-84
2021/10/02 08:58:15;;;;;;;1.40;1.20;;;;;;;;;;5025150;28;20216;-86
2021/10/02 09:00:42;;;;;;;1.15;0.98;;;;;;;;;;5032551;28;20245;-84
2021/10/02 09:03:09;;;;;;;1.75;1.00;;;;;;;;;;5029331;28;20251;-84
2021/10/02 09:05:36;;;;;;;1.42;0.80;;;;;;;;;;5024051;28;20208;-84
2021/10/02 09:08:04;;;;;;;1.00;0.80;;;;;;;;;;5028259;28;20203;-85
2021/10/02 09:10:33;;;;;;;1.17;0.90;;;;;;;;;;5029812;28;20200;-84
2021/10/02 09:13:01;;;;;;;1.23;0.82;;;;;;;;;;5032272;28;20200;-85
2021/10/02 09:15:28;;;;;;;1.10;1.00;;;;;;;;;;5032815;28;20203;-85
2021/10/02 09:17:56;;;;;;;1.70;1.35;;;;;;;;;;5028057;28;20216;-85
2021/10/02 09:20:23;;;;;;;1.35;1.10;;;;;;;;;;5029843;28;20299;-83
2021/10/02 09:22:55;;;;;;;1.00;0.70;;;;;;;;;;5022880;28;20331;-84
2021/10/02 09:25:23;;;;;;;1.10;0.80;;;;;;;;;;5031447;28;20663;-84
2021/10/02 09:28:04;;;;;;;1.38;0.90;;;;;;;;;;5030460;28;20196;-84
2021/10/02 09:30:31;;;;;;;1.45;1.02;;;;;;;;;;5030620;28;20269;-84
2021/10/02 09:33:03;;;;;;;2.17;1.38;;;;;;;;;;5029929;28;20664;-84
2021/10/02 09:35:35;;;;;;;2.10;0.90;;;;;;;;;;5025164;28;20697;-85
2021/10/02 09:38:02;;;;;;;1.45;1.08;;;;;;;;;;5032119;28;20227;-85
2021/10/02 09:40:31;;;;;;;1.90;1.02;;;;;;;;;;5021144;28;20208;-85
2021/10/02 09:42:59;;;;;;;1.20;0.85;;;;;;;;;;5026315;28;20235;-83
2021/10/02 09:45:28;;;;;;;1.00;0.70;;;;;;;;;;5031246;28;20204;-85
2021/10/02 09:47:56;;;;;;;1.35;0.90;;;;;;;;;;5030699;28;20273;-84
2021/10/02 09:50:24;;;;;;;1.40;1.13;;;;;;;;;;5023878;28;20197;-83
2021/10/02 09:52:54;;;;;;;3.25;1.13;;;;;;;;;;5028704;28;20192;-83
2021/10/02 09:55:23;;;;;;;2.20;1.35;;;;;;;;;;5029204;28;20204;-84
2021/10/02 09:57:52;;;;;;;0.90;0.70;;;;;;;;;;5027830;28;20674;-84
2021/10/02 10:00:20;;;;;;;1.20;1.00;;;;;;;;;;5030063;28;20200;-85
2021/10/02 10:02:49;;;;;;;1.10;1.00;;;;;;;;;;5028486;28;20670;-84
2021/10/02 10:05:16;;;;;;;2.35;1.30;;;;;;;;;;5025691;28;20204;-82
2021/10/02 10:07:53;;;;;;;1.27;1.00;;;;;;;;;;5027019;28;20196;-84
2021/10/02 10:10:21;;;;;;;1.10;0.90;;;;;;;;;;5031733;28;20192;-83
2021/10/02 10:12:48;;;;;;;0.90;0.80;;;;;;;;;;5034460;28;20659;-83
2021/10/02 10:15:32;;;;;;;1.60;1.15;;;;;;;;;;5029977;28;20660;-82
2021/10/02 10:18:01;;;;;;;1.05;0.90;;;;;;;;;;5024604;28;20266;-80
2021/10/02 10:20:36;;;;;;;1.08;0.90;;;;;;;;;;5026992;28;20594;-83
2021/10/02 10:23:04;;;;;;;0.93;0.80;;;;;;;;;;5031507;28;20669;-83
2021/10/02 10:25:31;;;;;;;2.85;1.20;;;;;;;;;;5032478;28;20200;-87
2021/10/02 10:28:02;;;;;;;1.10;1.00;;;;;;;;;;5032735;28;20270;-84
2021/10/02 10:30:30;;;;;;;2.78;1.00;;;;;;;;;;5026244;28;20224;-84
2021/10/02 10:32:59;;;;;;;2.20;1.42;;;;;;;;;;5026222;28;20235;-84
2021/10/02 10:35:28;;;;;;;1.20;1.00;;;;;;;;;;4997042;28;20225;-84
2021/10/02 10:37:56;;;;;;;1.40;1.13;;;;;;;;;;5003206;28;20639;-84
2021/10/02 10:40:23;;;;;;;2.10;1.20;;;;;;;;;;5005129;28;20197;-84
2021/10/02 10:42:52;;;;;;;1.98;1.30;;;;;;;;;;4997177;28;20197;-82
2021/10/02 10:45:19;;;;;;;1.33;1.10;;;;;;;;;;5003044;28;20216;-83
2021/10/02 10:47:46;;;;;;;1.88;1.08;;;;;;;;;;5003899;28;20573;-84
2021/10/02 10:50:13;;;;;;;1.55;1.45;;;;;;;;;;5001514;28;20811;-83
2021/10/02 10:52:43;;;;;;;2.55;1.65;;;;;;;;;;5005397;28;20202;-84
2021/10/02 10:55:14;;;;;;;1.40;1.00;;;;;;;;;;5001977;28;20721;-83
2021/10/02 10:57:43;;;;;;;1.27;1.15;;;;;;;;;;5005810;28;20201;-84
2021/10/02 11:00:12;;;;;;;1.10;0.90;;;;;;;;;;5006068;28;20197;-84
2021/10/02 11:02:46;;;;;;;2.05;1.23;;;;;;;;;;5006698;28;20654;-85
2021/10/02 11:05:32;;;;;;;1.10;0.90;;;;;;;;;;5008246;28;20282;-83
2021/10/02 11:08:00;;;;;;;2.00;1.20;;;;;;;;;;5006003;28;20188;-84
2021/10/02 11:10:46;;;;;;;1.00;0.80;;;;;;;;;;5010848;28;20259;-84
2021/10/02 11:13:14;;;;;;;1.15;1.05;;;;;;;;;;5015487;28;20263;-85
2021/10/02 11:15:41;;;;;;;1.23;1.13;;;;;;;;;;5013734;28;20204;-86
2021/10/02 11:18:30;;;;;;;1.15;0.90;;;;;;;;;;5015547;28;20754;-84
2021/10/02 11:21:01;;;;;;;3.75;0.98;;;;;;;;;;5014872;28;20223;-84
2021/10/02 11:24:02;;;;;;;1.70;1.20;;;;;;;;;;5015911;28;20255;-85
2021/10/02 11:26:38;;;;;;;1.23;1.05;;;;;;;;;;5014811;28;20200;-84
2021/10/02 11:29:18;;;;;;;1.30;1.20;;;;;;;;;;5015480;28;20193;-85
2021/10/02 11:31:46;;;;;;;2.15;1.27;;;;;;;;;;5015415;28;20204;-83
2021/10/02 11:34:16;;;;;;;2.45;1.30;;;;;;;;;;5013987;28;20201;-84
2021/10/02 11:36:44;;;;;;;2.28;1.23;;;;;;;;;;5011965;28;20945;-84
2021/10/02 11:39:14;;;;;;;1.30;1.15;;;;;;;;;;5013734;28;20479;-84
2021/10/02 11:41:44;;;;;;;1.30;1.20;;;;;;;;;;5010818;28;20205;-84
2021/10/02 11:44:11;;;;;;;1.60;1.27;;;;;;;;;;5015509;28;20341;-84
2021/10/02 11:46:38;;;;;;;1.50;1.05;;;;;;;;;;5014718;28;20196;-81
2021/10/02 11:49:15;;;;;;;2.28;1.15;;;;;;;;;;5013321;28;20197;-82
2021/10/02 11:51:43;;;;;;;1.65;1.50;;;;;;;;;;5014492;28;20701;-82
2021/10/02 11:54:17;;;;;;;1.50;1.10;;;;;;;;;;5014608;28;20700;-81
2021/10/02 11:56:46;;;;;;;1.40;1.08;;;;;;;;;;5009098;28;20677;-84
2021/10/02 11:59:13;;;;;;;1.17;1.00;;;;;;;;;;5008590;28;20213;-85
2021/10/02 12:01:41;;;;;;;1.10;1.00;;;;;;;;;;5008129;28;20200;-85
2021/10/02 12:04:10;;;;;;;1.83;1.50;;;;;;;;;;5005455;28;20206;-84
2021/10/02 12:06:38;;;;;;;1.20;1.00;;;;;;;;;;5005669;28;20722;-84
2021/10/02 12:09:05;;;;;;;1.65;1.25;;;;;;;;;;5011287;28;20216;-85
2021/10/02 12:11:40;;;;;;;1.50;1.40;;;;;;;;;;5014259;28;20201;-85
2021/10/02 12:14:09;;;;;;;1.40;1.13;;;;;;;;;;5009097;28;20184;-85
2021/10/02 12:16:36;;;;;;;1.10;1.00;;;;;;;;;;5008486;28;20193;-84
2021/10/02 12:19:07;;;;;;;1.70;1.25;;;;;;;;;;5010289;28;20231;-85
2021/10/02 12:21:41;;;;;;;1.75;1.15;;;;;;;;;;5012347;28;20197;-83
2021/10/02 12:24:13;;;;;;;2.00;1.38;;;;;;;;;;5013069;28;20212;-88
2021/10/02 12:26:45;;;;;;;1.40;1.10;;;;;;;;;;5015163;28;20200;-86
2021/10/02 12:29:15;;;;;;;1.50;1.05;;;;;;;;;;5013552;28;20201;-88
2021/10/02 12:31:57;;;;;;;1.52;1.00;;;;;;;;;;5011992;28;20663;-88
2021/10/02 12:34:26;;;;;;;1.10;1.00;;;;;;;;;;5011134;28;20731;-85
2021/10/02 12:36:56;;;;;;;1.40;1.08;;;;;;;;;;5014935;28;20730;-85
2021/10/02 12:39:26;;;;;;;1.75;1.23;;;;;;;;;;5014453;28;20290;-84
2021/10/02 12:41:53;;;;;;;1.45;1.15;;;;;;;;;;5013990;28;20632;-84
2021/10/02 12:44:22;;;;;;;1.10;1.00;;;;;;;;;;5014019;28;20196;-84
2021/10/02 12:46:50;;;;;;;1.25;1.10;;;;;;;;;;4997654;28;20217;-86
2021/10/02 12:49:17;;;;;;;1.55;1.27;;;;;;;;;;5011288;28;20271;-85
2021/10/02 12:51:45;;;;;;;2.92;1.40;;;;;;;;;;5012876;28;20674;-84
2021/10/02 12:54:12;;;;;;;1.33;1.23;;;;;;;;;;5006018;28;20225;-85
2021/10/02 12:56:55;;;;;;;1.38;1.20;;;;;;;;;;5010205;28;20201;-84
2021/10/02 12:59:24;;;;;;;1.40;1.30;;;;;;;;;;5012375;28;20224;-84
2021/10/02 13:01:52;;;;;;;1.75;1.20;;;;;;;;;;5013581;28;20694;-83
2021/10/02 13:04:20;;;;;;;1.20;1.10;;;;;;;;;;5011312;28;20196;-84
2021/10/02 13:06:51;;;;;;;1.35;1.25;;;;;;;;;;5012378;28;20292;-84
2021/10/02 13:09:18;;;;;;;1.27;1.17;;;;;;;;;;5013975;28;20643;-84
2021/10/02 13:11:45;;;;;;;2.25;1.33;;;;;;;;;;5013599;28;20227;-84
2021/10/02 13:14:12;;;;;;;1.83;1.10;;;;;;;;;;5011330;28;20239;-85
2021/10/02 13:16:40;;;;;;;1.58;0.88;;;;;;;;;;5013068;28;20726;-84
2021/10/02 13:19:08;;;;;;;1.70;1.40;;;;;;;;;;5012576;28;20216;-88
2021/10/02 13:21:35;;;;;;;1.63;0.90;;;;;;;;;;5012874;28;20211;-84
2021/10/02 13:24:08;;;;;;;1.30;0.98;;;;;;;;;;5012343;28;20205;-84
2021/10/02 13:26:35;;;;;;;1.83;1.15;;;;;;;;;;5013223;28;20201;-84
2021/10/02 13:29:02;;;;;;;2.50;1.20;;;;;;;;;;5011185;28;20563;-84
2021/10/02 13:31:30;;;;;;;3.03;1.17;;;;;;;;;;5008828;28;20232;-84
2021/10/02 13:34:05;;;;;;;1.25;1.08;;;;;;;;;;5011945;28;20320;-84
2021/10/02 13:36:33;;;;;;;1.20;0.90;;;;;;;;;;5012209;28;20201;-85
2021/10/02 13:39:08;;;;;;;1.70;1.17;;;;;;;;;;5011268;28;20316;-84
2021/10/02 13:41:35;;;;;;;1.70;1.10;;;;;;;;;;5011986;28;20247;-84
2021/10/02 13:44:04;;;;;;;1.80;1.27;;;;;;;;;;5012941;28;20201;-84
2021/10/02 13:46:33;;;;;;;3.20;1.33;;;;;;;;;;5013274;28;20542;-85
2021/10/02 13:49:02;;;;;;;1.55;1.20;;;;;;;;;;5012150;28;20193;-84
2021/10/02 13:51:29;;;;;;;2.70;1.30;;;;;;;;;;5012850;28;20228;-84
2021/10/02 13:53:57;;;;;;;2.45;1.40;;;;;;;;;;5013207;28;20247;-86
2021/10/02 13:56:24;;;;;;;1.38;1.20;;;;;;;;;;5014058;28;20205;-85
2021/10/02 13:58:51;;;;;;;1.38;1.05;;;;;;;;;;5012804;28;20252;-85
2021/10/02 14:01:18;;;;;;;1.55;1.40;;;;;;;;;;5012078;28;20204;-84
2021/10/02 14:03:45;;;;;;;1.75;1.08;;;;;;;;;;5011793;28;20259;-85
2021/10/02 14:06:13;;;;;;;2.38;1.27;;;;;;;;;;5013232;28;20204;-85
2021/10/02 14:08:40;;;;;;;1.67;1.42;;;;;;;;;;5009149;28;20224;-84
2021/10/02 14:11:07;;;;;;;1.30;1.20;;;;;;;;;;5013053;28;20578;-85
2021/10/02 14:13:35;;;;;;;1.30;1.10;;;;;;;;;;5012348;28;20188;-83
2021/10/02 14:16:02;;;;;;;1.70;1.20;;;;;;;;;;5012523;28;20663;-85
2021/10/02 14:18:29;;;;;;;1.77;1.20;;;;;;;;;;5012871;28;20196;-88
2021/10/02 14:20:56;;;;;;;1.30;1.00;;;;;;;;;;5013498;28;20208;-84
2021/10/02 14:23:25;;;;;;;2.42;1.10;;;;;;;;;;5011548;28;20266;-85
2021/10/02 14:25:52;;;;;;;2.25;1.10;;;;;;;;;;5011613;28;20197;-84
2021/10/02 14:28:19;;;;;;;1.92;1.40;;;;;;;;;;5011152;28;20208;-86
2021/10/02 14:30:46;;;;;;;1.85;1.10;;;;;;;;;;5008220;28;20220;-89
2021/10/02 14:33:16;;;;;;;1.55;1.15;;;;;;;;;;5016417;28;20207;-86
2021/10/02 14:35:43;;;;;;;1.92;1.10;;;;;;;;;;5014478;28;20549;-85
2021/10/02 14:38:13;;;;;;;1.20;1.10;;;;;;;;;;5014675;28;20777;-86
2021/10/02 14:40:41;;;;;;;1.33;1.00;;;;;;;;;;5012569;28;20291;-87
2021/10/02 14:43:08;;;;;;;1.70;1.23;;;;;;;;;;5015877;28;20270;-85
2021/10/02 14:45:35;;;;;;;1.70;1.55;;;;;;;;;;5016584;28;20255;-86
2021/10/02 14:48:03;;;;;;;1.40;1.00;;;;;;;;;;5016473;28;20192;-87
2021/10/02 14:50:30;;;;;;;1.38;1.27;;;;;;;;;;5016651;28;20710;-86
2021/10/02 14:52:59;;;;;;;1.42;1.15;;;;;;;;;;5016775;28;20209;-86
2021/10/02 14:55:26;;;;;;;3.30;1.70;;;;;;;;;;5015866;28;20659;-86
2021/10/02 14:57:56;;;;;;;1.88;1.58;;;;;;;;;;5027414;28;20251;-86
2021/10/02 15:00:23;;;;;;;1.20;1.10;;;;;;;;;;5015844;28;20262;-85
2021/10/02 15:02:50;;;;;;;2.30;1.10;;;;;;;;;;5016021;28;20197;-85
2021/10/02 15:05:17;;;;;;;1.70;1.23;;;;;;;;;;5016408;28;20251;-86
2021/10/02 15:07:44;;;;;;;1.17;1.05;;;;;;;;;;5010031;28;20197;-85
2021/10/02 15:10:13;;;;;;;1.20;1.00;;;;;;;;;;5004733;28;20201;-84
2021/10/02 15:12:40;;;;;;;2.63;1.05;;;;;;;;;;5015822;28;20288;-84
2021/10/02 15:15:10;;;;;;;1.20;1.00;;;;;;;;;;5015717;28;20201;-85
2021/10/02 15:17:37;;;;;;;1.55;1.02;;;;;;;;;;5015811;28;20201;-86
2021/10/02 15:20:04;;;;;;;1.25;1.13;;;;;;;;;;5014108;28;20220;-85
2021/10/02 15:22:32;;;;;;;1.25;0.95;;;;;;;;;;5013465;28;20586;-84
2021/10/02 15:25:02;;;;;;;2.28;1.17;;;;;;;;;;5015096;28;20667;-84
2021/10/02 15:27:30;;;;;;;1.70;1.10;;;;;;;;;;5014228;28;20196;-84
2021/10/02 15:29:57;;;;;;;1.33;1.20;;;;;;;;;;5014150;28;20225;-84
2021/10/02 15:32:26;;;;;;;2.90;1.90;;;;;;;;;;5017143;28;20611;-86
2021/10/02 15:34:54;;;;;;;2.15;1.08;;;;;;;;;;5014691;28;20220;-88
2021/10/02 15:37:21;;;;;;;1.45;1.27;;;;;;;;;;5008866;28;20196;-90